createdAt,value
2017-12-19T00:01:01.100Z,-0.90
2017-12-19T00:03:29.923Z,-1.00
2017-12-19T00:05:58.015Z,-1.00
2017-12-19T00:08:26.075Z,-1.00
2017-12-19T00:10:54.990Z,-0.90
2017-12-19T00:13:23.406Z,-1.00
2017-12-19T00:15:51.720Z,-1.00
2017-12-19T00:18:20.827Z,-1.00
2017-12-19T00:20:50.020Z,-0.90
2017-12-19T00:23:18.323Z,-0.90
2017-12-19T00:25:47.440Z,-0.90
2017-12-19T00:28:15.807Z,-0.90
2017-12-19T00:30:44.107Z,-0.90
2017-12-19T00:33:13.179Z,-0.80
2017-12-19T00:35:41.518Z,-0.80
2017-12-19T00:38:09.878Z,-0.80
2017-12-19T00:40:38.211Z,-0.80
2017-12-19T00:43:06.507Z,-0.80
2017-12-19T00:45:34.810Z,-0.80
2017-12-19T00:48:03.155Z,-0.90
2017-12-19T00:50:32.275Z,-0.70
2017-12-19T00:53:01.384Z,-0.70
2017-12-19T00:55:30.494Z,-0.70
2017-12-19T00:57:58.799Z,-0.70
2017-12-19T01:00:27.098Z,-0.80
2017-12-19T01:02:55.459Z,-0.90
2017-12-19T01:05:24.630Z,-0.80
2017-12-19T01:07:52.923Z,-0.80
2017-12-19T01:10:21.258Z,-0.90
2017-12-19T01:12:49.612Z,-0.90
2017-12-19T01:15:17.910Z,-0.90
2017-12-19T01:17:47.027Z,-0.70
2017-12-19T01:20:16.090Z,-0.70
2017-12-19T01:22:44.431Z,-0.70
2017-12-19T01:25:12.727Z,-0.60
2017-12-19T01:27:41.063Z,-0.70
2017-12-19T01:30:10.135Z,-0.70
2017-12-19T01:32:38.500Z,-0.70
2017-12-19T01:35:07.771Z,-0.70
2017-12-19T01:37:36.071Z,-0.70
2017-12-19T01:40:04.419Z,-0.70
2017-12-19T01:42:32.915Z,-0.70
2017-12-19T01:45:02.723Z,-0.70
2017-12-19T01:47:31.027Z,-0.70
2017-12-19T01:50:00.651Z,-0.60
2017-12-19T01:52:29.008Z,-0.60
2017-12-19T01:54:57.355Z,-0.60
2017-12-19T01:57:25.690Z,-0.70
2017-12-19T01:59:54.008Z,-0.70
2017-12-19T02:02:23.135Z,-0.70
2017-12-19T02:04:52.431Z,-0.80
2017-12-19T02:07:20.735Z,-0.80
2017-12-19T02:09:49.811Z,-0.70
2017-12-19T02:12:18.214Z,-0.70
2017-12-19T02:14:46.529Z,-0.70
2017-12-19T02:17:14.998Z,-0.70
2017-12-19T02:19:43.387Z,-0.60
2017-12-19T02:22:11.871Z,-0.50
2017-12-19T02:24:40.247Z,-0.50
2017-12-19T02:27:08.711Z,-0.60
2017-12-19T02:29:37.014Z,-0.50
2017-12-19T02:32:05.318Z,-0.50
2017-12-19T02:34:33.650Z,-0.50
2017-12-19T02:37:02.771Z,-0.50
2017-12-19T02:39:31.118Z,-0.50
2017-12-19T02:42:00.203Z,-0.50
2017-12-19T02:44:28.547Z,-0.50
2017-12-19T02:46:57.641Z,-0.40
2017-12-19T02:49:27.155Z,-0.40
2017-12-19T02:51:55.466Z,-0.40
2017-12-19T02:54:23.778Z,-0.40
2017-12-19T02:56:52.146Z,-0.30
2017-12-19T02:59:21.212Z,-0.20
2017-12-19T03:01:49.519Z,-0.30
2017-12-19T03:04:17.976Z,-0.20
2017-12-19T03:06:46.278Z,-0.30
2017-12-19T03:09:14.735Z,-0.20
2017-12-19T03:11:43.107Z,-0.20
2017-12-19T03:14:12.180Z,-0.10
2017-12-19T03:16:40.524Z,-0.20
2017-12-19T03:19:09.074Z,-0.20
2017-12-19T03:21:37.385Z,-0.20
2017-12-19T03:24:06.451Z,-0.20
2017-12-19T03:26:34.792Z,-0.20
2017-12-19T03:29:03.151Z,-0.20
2017-12-19T03:31:31.456Z,-0.10
2017-12-19T03:34:00.571Z,-0.10
2017-12-19T03:36:29.680Z,0.00
2017-12-19T03:38:58.876Z,-0.10
2017-12-19T03:41:27.220Z,-0.10
2017-12-19T03:43:55.558Z,-0.30
2017-12-19T03:46:24.662Z,-0.10
2017-12-19T03:48:54.718Z,-0.10
2017-12-19T03:51:23.063Z,0.00
2017-12-19T03:53:51.355Z,0.10
2017-12-19T03:56:20.478Z,0.00
2017-12-19T03:58:49.547Z,0.00
2017-12-19T04:01:17.883Z,0.00
2017-12-19T04:03:46.951Z,0.00
2017-12-19T04:06:15.316Z,0.00
2017-12-19T04:08:43.615Z,0.00
2017-12-19T04:11:12.035Z,0.00
2017-12-19T04:13:40.432Z,0.00
2017-12-19T04:16:08.774Z,0.00
2017-12-19T04:18:37.106Z,0.00
2017-12-19T04:21:05.434Z,0.00
2017-12-19T04:23:34.499Z,0.00
2017-12-19T04:26:02.851Z,0.00
2017-12-19T04:28:31.146Z,0.00
2017-12-19T04:30:59.442Z,0.10
2017-12-19T04:33:27.771Z,0.00
2017-12-19T04:35:57.576Z,0.00
2017-12-19T04:38:25.939Z,0.00
2017-12-19T04:40:54.247Z,0.00
2017-12-19T04:43:22.538Z,0.00
2017-12-19T04:45:50.946Z,0.10
2017-12-19T04:48:19.243Z,0.10
2017-12-19T04:50:48.932Z,0.10
2017-12-19T04:53:17.276Z,0.10
2017-12-19T04:55:46.467Z,0.10
2017-12-19T04:58:15.587Z,0.10
2017-12-19T05:00:44.651Z,0.10
2017-12-19T05:03:13.004Z,0.10
2017-12-19T05:05:41.304Z,0.10
2017-12-19T05:08:09.611Z,0.10
2017-12-19T05:10:37.947Z,0.20
2017-12-19T05:13:06.239Z,0.10
2017-12-19T05:15:34.588Z,0.10
2017-12-19T05:18:02.879Z,0.20
2017-12-19T05:20:31.375Z,0.20
2017-12-19T05:22:59.671Z,0.00
2017-12-19T05:25:28.017Z,0.10
2017-12-19T05:27:57.215Z,0.20
2017-12-19T05:30:26.274Z,0.20
2017-12-19T05:32:54.575Z,0.20
2017-12-19T05:35:22.911Z,0.30
2017-12-19T05:37:51.976Z,0.30
2017-12-19T05:40:20.322Z,0.20
2017-12-19T05:42:48.771Z,0.30
2017-12-19T05:45:17.067Z,0.30
2017-12-19T05:47:45.366Z,0.30
2017-12-19T05:50:14.466Z,0.30
2017-12-19T05:52:43.602Z,0.20
2017-12-19T05:55:11.891Z,0.20
2017-12-19T05:57:40.186Z,0.30
2017-12-19T06:00:08.526Z,0.40
2017-12-19T06:02:36.825Z,0.30
2017-12-19T06:05:05.119Z,0.30
2017-12-19T06:07:33.458Z,0.30
2017-12-19T06:10:01.751Z,0.30
2017-12-19T06:12:30.083Z,0.30
2017-12-19T06:14:58.422Z,0.40
2017-12-19T06:17:26.715Z,0.40
2017-12-19T06:19:55.010Z,0.40
2017-12-19T06:22:23.355Z,0.50
2017-12-19T06:24:52.418Z,0.60
2017-12-19T06:27:20.719Z,0.60
2017-12-19T06:29:49.047Z,0.60
2017-12-19T06:32:18.123Z,0.70
2017-12-19T06:34:46.472Z,0.60
2017-12-19T06:37:14.818Z,0.60
2017-12-19T06:39:43.163Z,0.60
2017-12-19T06:42:11.514Z,0.60
2017-12-19T06:44:39.775Z,0.60
2017-12-19T06:47:08.139Z,0.70
2017-12-19T06:49:36.445Z,0.60
2017-12-19T06:52:04.734Z,0.70
2017-12-19T06:54:33.191Z,0.70
2017-12-19T06:57:01.488Z,0.70
2017-12-19T06:59:29.791Z,0.70
2017-12-19T07:01:59.547Z,0.80
2017-12-19T07:04:29.346Z,0.80
2017-12-19T07:06:57.643Z,0.80
2017-12-19T07:09:26.213Z,0.80
2017-12-19T07:11:55.234Z,1.00
2017-12-19T07:14:23.674Z,0.90
2017-12-19T07:16:52.770Z,1.00
2017-12-19T07:19:21.063Z,1.00
2017-12-19T07:21:50.167Z,1.00
2017-12-19T07:24:19.283Z,1.00
2017-12-19T07:26:48.347Z,1.00
2017-12-19T07:29:16.686Z,1.00
2017-12-19T07:31:45.751Z,1.20
2017-12-19T07:34:14.103Z,1.10
2017-12-19T07:36:42.399Z,1.20
2017-12-19T07:39:10.696Z,1.20
2017-12-19T07:41:39.035Z,1.20
2017-12-19T07:44:07.332Z,1.10
2017-12-19T07:46:35.674Z,1.20
2017-12-19T07:49:03.971Z,1.30
2017-12-19T07:51:32.315Z,1.30
2017-12-19T07:54:01.408Z,1.50
2017-12-19T07:56:30.506Z,1.40
2017-12-19T07:58:58.815Z,1.40
2017-12-19T08:01:27.920Z,1.30
2017-12-19T08:03:57.019Z,1.40
2017-12-19T08:06:25.368Z,1.40
2017-12-19T08:08:53.667Z,1.40
2017-12-19T08:11:22.010Z,1.30
2017-12-19T08:13:50.375Z,1.30
2017-12-19T08:16:18.703Z,1.30
2017-12-19T08:18:47.011Z,1.40
2017-12-19T08:21:15.348Z,1.40
2017-12-19T08:23:44.455Z,1.50
2017-12-19T08:26:12.749Z,1.50
2017-12-19T08:28:41.931Z,1.40
2017-12-19T08:31:10.222Z,1.40
2017-12-19T08:33:38.571Z,1.50
2017-12-19T08:36:06.870Z,1.50
2017-12-19T08:38:35.211Z,1.50
2017-12-19T08:41:03.747Z,1.50
2017-12-19T08:43:32.192Z,1.50
2017-12-19T08:46:00.492Z,1.60
2017-12-19T08:48:28.790Z,1.60
2017-12-19T08:50:57.882Z,1.60
2017-12-19T08:53:26.226Z,1.60
2017-12-19T08:55:54.784Z,1.70
2017-12-19T08:58:23.095Z,1.80
2017-12-19T09:00:51.386Z,1.90
2017-12-19T09:03:19.860Z,1.80
2017-12-19T09:05:48.179Z,1.90
2017-12-19T09:08:16.624Z,1.90
2017-12-19T09:10:44.922Z,1.90
2017-12-19T09:13:13.987Z,1.90
2017-12-19T09:15:42.327Z,1.90
2017-12-19T09:18:11.423Z,2.00
2017-12-19T09:20:40.486Z,2.00
2017-12-19T09:23:08.816Z,2.00
2017-12-19T09:25:37.103Z,2.00
2017-12-19T09:28:05.445Z,2.00
2017-12-19T09:30:33.740Z,2.00
2017-12-19T09:33:02.079Z,2.10
2017-12-19T09:35:30.376Z,2.10
2017-12-19T09:37:59.483Z,2.10
2017-12-19T09:40:28.542Z,2.10
2017-12-19T09:42:57.049Z,2.10
2017-12-19T09:45:26.378Z,2.20
2017-12-19T09:47:54.671Z,2.20
2017-12-19T09:50:23.169Z,2.20
2017-12-19T09:52:51.555Z,2.20
2017-12-19T09:55:21.351Z,2.30
2017-12-19T09:57:49.690Z,2.30
2017-12-19T10:00:18.795Z,2.30
2017-12-19T10:02:47.907Z,2.40
2017-12-19T10:05:16.966Z,2.30
2017-12-19T10:07:45.390Z,2.30
2017-12-19T10:10:13.680Z,2.40
2017-12-19T10:12:42.011Z,2.40
2017-12-19T10:15:10.315Z,2.40
2017-12-19T10:17:38.657Z,2.50
2017-12-19T10:20:07.720Z,2.60
2017-12-19T10:22:36.059Z,2.60
2017-12-19T10:25:04.370Z,2.60
2017-12-19T10:27:32.659Z,2.60
2017-12-19T10:30:00.999Z,2.50
2017-12-19T10:32:29.290Z,2.60
2017-12-19T10:34:57.642Z,2.60
2017-12-19T10:37:25.970Z,2.60
2017-12-19T10:39:54.303Z,2.60
2017-12-19T10:42:22.631Z,2.70
2017-12-19T10:44:51.014Z,2.70
2017-12-19T10:47:20.071Z,2.70
2017-12-19T10:49:49.130Z,2.70
2017-12-19T10:52:17.504Z,2.60
2017-12-19T10:54:45.801Z,2.60
2017-12-19T10:57:14.147Z,2.60
2017-12-19T10:59:43.331Z,2.50
2017-12-19T11:02:11.845Z,2.50
2017-12-19T11:04:40.345Z,2.60
2017-12-19T11:07:09.536Z,2.70
2017-12-19T11:09:38.633Z,2.70
2017-12-19T11:12:06.998Z,2.70
2017-12-19T11:14:35.328Z,2.70
2017-12-19T11:17:03.620Z,2.70
2017-12-19T11:19:31.912Z,2.80
2017-12-19T11:22:00.248Z,2.80
2017-12-19T11:24:28.540Z,2.70
2017-12-19T11:26:56.876Z,2.70
2017-12-19T11:29:26.773Z,2.60
2017-12-19T11:31:55.055Z,2.60
2017-12-19T11:34:23.403Z,2.60
2017-12-19T11:36:52.516Z,2.60
2017-12-19T11:39:21.911Z,2.60
2017-12-19T11:41:50.207Z,2.60
2017-12-19T11:44:18.494Z,2.60
2017-12-19T11:46:46.832Z,2.60
2017-12-19T11:49:15.130Z,2.70
2017-12-19T11:51:43.466Z,2.60
2017-12-19T11:54:12.527Z,2.70
2017-12-19T11:56:40.866Z,2.70
2017-12-19T11:59:09.980Z,2.70
2017-12-19T12:01:39.093Z,2.70
2017-12-19T12:04:08.192Z,2.70
2017-12-19T12:06:37.292Z,2.70
2017-12-19T12:09:05.639Z,2.60
2017-12-19T12:11:34.071Z,2.60
2017-12-19T12:14:02.368Z,2.70
2017-12-19T12:16:31.427Z,2.80
2017-12-19T12:18:59.755Z,2.70
2017-12-19T12:21:28.086Z,2.80
2017-12-19T12:23:56.388Z,2.90
2017-12-19T12:26:24.726Z,2.90
2017-12-19T12:28:53.080Z,2.90
2017-12-19T12:31:21.602Z,2.90
2017-12-19T12:33:49.919Z,2.90
2017-12-19T12:36:18.983Z,3.00
2017-12-19T12:38:47.315Z,3.00
2017-12-19T12:41:16.402Z,3.00
2017-12-19T12:43:44.691Z,3.00
2017-12-19T12:46:13.023Z,3.00
2017-12-19T12:48:41.387Z,3.00
2017-12-19T12:51:09.704Z,2.90
2017-12-19T12:53:38.000Z,2.90
2017-12-19T12:56:06.326Z,2.90
2017-12-19T12:58:34.626Z,2.90
2017-12-19T13:01:02.947Z,2.90
2017-12-19T13:03:32.023Z,2.80
2017-12-19T13:06:00.411Z,2.80
2017-12-19T13:08:28.716Z,2.80
2017-12-19T13:10:57.775Z,2.70
2017-12-19T13:13:26.108Z,2.70
2017-12-19T13:15:54.903Z,2.70
2017-12-19T13:18:23.199Z,2.70
2017-12-19T13:20:52.268Z,2.60
2017-12-19T13:23:20.621Z,2.60
2017-12-19T13:25:48.914Z,2.60
2017-12-19T13:28:18.215Z,2.70
2017-12-19T13:30:46.567Z,2.70
2017-12-19T13:33:15.012Z,2.70
2017-12-19T13:35:43.302Z,2.80
2017-12-19T13:38:11.596Z,2.80
2017-12-19T13:40:39.948Z,2.80
2017-12-19T13:43:09.051Z,2.70
2017-12-19T13:45:38.863Z,2.80
2017-12-19T13:48:07.231Z,2.80
2017-12-19T13:50:35.520Z,2.80
2017-12-19T13:53:03.810Z,2.80
2017-12-19T13:55:32.143Z,2.80
2017-12-19T13:58:00.479Z,2.70
2017-12-19T14:00:28.920Z,2.70
2017-12-19T14:02:57.218Z,2.80
2017-12-19T14:05:26.419Z,2.80
2017-12-19T14:07:54.803Z,2.80
2017-12-19T14:10:23.107Z,2.80
2017-12-19T14:12:52.211Z,2.80
2017-12-19T14:15:20.591Z,2.80
2017-12-19T14:17:48.987Z,2.80
2017-12-19T14:20:17.283Z,2.90
2017-12-19T14:22:46.391Z,2.80
2017-12-19T14:25:14.687Z,2.80
2017-12-19T14:27:43.784Z,2.90
2017-12-19T14:30:13.651Z,2.90
2017-12-19T14:32:41.943Z,2.90
2017-12-19T14:35:10.288Z,2.80
2017-12-19T14:37:38.575Z,2.80
2017-12-19T14:40:06.907Z,2.80
2017-12-19T14:42:36.106Z,2.90
2017-12-19T14:45:05.204Z,2.90
2017-12-19T14:47:34.259Z,2.90
2017-12-19T14:50:02.603Z,2.90
2017-12-19T14:52:31.786Z,2.80
2017-12-19T14:55:00.082Z,2.80
2017-12-19T14:57:28.415Z,2.90
2017-12-19T14:59:56.750Z,2.90
2017-12-19T15:02:25.087Z,2.90
2017-12-19T15:04:53.467Z,2.90
2017-12-19T15:07:22.551Z,3.00
2017-12-19T15:09:50.852Z,3.00
2017-12-19T15:12:19.174Z,2.90
2017-12-19T15:14:47.506Z,2.90
2017-12-19T15:17:15.828Z,3.00
2017-12-19T15:19:44.924Z,2.80
2017-12-19T15:22:13.259Z,2.80
2017-12-19T15:24:41.624Z,2.80
2017-12-19T15:27:10.687Z,2.90
2017-12-19T15:29:38.995Z,2.90
2017-12-19T15:32:07.326Z,2.90
2017-12-19T15:34:35.668Z,2.90
2017-12-19T15:37:05.512Z,2.90
2017-12-19T15:39:33.843Z,2.90
2017-12-19T15:42:02.178Z,3.00
2017-12-19T15:44:30.475Z,2.90
2017-12-19T15:46:58.807Z,2.80
2017-12-19T15:49:27.131Z,2.90
2017-12-19T15:51:55.459Z,2.90
2017-12-19T15:54:24.559Z,3.00
2017-12-19T15:56:53.626Z,3.10
2017-12-19T15:59:21.954Z,3.10
2017-12-19T16:01:50.271Z,3.00
2017-12-19T16:04:18.599Z,2.90
2017-12-19T16:06:46.910Z,2.90
2017-12-19T16:09:15.238Z,2.90
2017-12-19T16:11:43.572Z,2.90
2017-12-19T16:14:11.953Z,3.00
2017-12-19T16:16:40.274Z,2.90
2017-12-19T16:19:08.608Z,2.80
2017-12-19T16:21:36.904Z,2.80
2017-12-19T16:24:05.235Z,2.90
2017-12-19T16:26:33.570Z,2.90
2017-12-19T16:29:02.220Z,2.90
2017-12-19T16:31:31.509Z,2.90
2017-12-19T16:33:59.847Z,2.90
2017-12-19T16:36:28.907Z,2.90
2017-12-19T16:38:57.204Z,2.90
2017-12-19T16:41:25.543Z,2.90
2017-12-19T16:43:54.651Z,2.80
2017-12-19T16:46:23.755Z,2.90
2017-12-19T16:48:52.098Z,2.80
2017-12-19T16:51:20.398Z,2.80
2017-12-19T16:53:48.804Z,2.90
2017-12-19T16:56:18.603Z,2.80
2017-12-19T16:58:46.928Z,2.80
2017-12-19T17:01:15.219Z,2.80
2017-12-19T17:03:43.563Z,2.80
2017-12-19T17:06:11.864Z,2.80
2017-12-19T17:08:40.275Z,2.90
2017-12-19T17:11:08.572Z,2.90
2017-12-19T17:13:36.859Z,2.80
2017-12-19T17:16:05.199Z,2.70
2017-12-19T17:18:33.507Z,2.70
2017-12-19T17:21:01.844Z,2.70
2017-12-19T17:23:30.947Z,2.70
2017-12-19T17:26:00.003Z,2.70
2017-12-19T17:28:28.357Z,2.70
2017-12-19T17:30:57.463Z,2.70
2017-12-19T17:33:26.573Z,2.70
2017-12-19T17:35:55.667Z,2.60
2017-12-19T17:38:24.719Z,2.70
2017-12-19T17:40:53.086Z,2.70
2017-12-19T17:43:21.562Z,2.70
2017-12-19T17:45:50.618Z,2.70
2017-12-19T17:48:18.913Z,2.70
2017-12-19T17:50:47.255Z,2.60
2017-12-19T17:53:16.306Z,2.60
2017-12-19T17:55:44.644Z,2.60
2017-12-19T17:58:13.835Z,2.50
2017-12-19T18:00:42.123Z,2.50
2017-12-19T18:03:10.519Z,2.50
2017-12-19T18:05:38.851Z,2.60
2017-12-19T18:08:07.186Z,2.60
2017-12-19T18:10:35.478Z,2.60
2017-12-19T18:13:03.823Z,2.60
2017-12-19T18:15:32.155Z,2.60
2017-12-19T18:18:00.443Z,2.60
2017-12-19T18:20:28.774Z,2.60
2017-12-19T18:22:57.079Z,2.60
2017-12-19T18:25:25.441Z,2.60
2017-12-19T18:27:54.508Z,2.70
2017-12-19T18:30:22.847Z,2.70
2017-12-19T18:32:51.954Z,2.70
2017-12-19T18:35:22.370Z,2.60
2017-12-19T18:37:50.665Z,2.60
2017-12-19T18:40:18.956Z,2.60
2017-12-19T18:42:47.299Z,2.70
2017-12-19T18:45:15.740Z,2.70
2017-12-19T18:47:44.027Z,2.70
2017-12-19T18:50:13.819Z,2.60
2017-12-19T18:52:42.150Z,2.60
2017-12-19T18:55:11.339Z,2.60
2017-12-19T18:57:39.699Z,2.60
2017-12-19T19:00:08.003Z,2.60
2017-12-19T19:02:36.296Z,2.60
2017-12-19T19:05:04.683Z,2.70
2017-12-19T19:07:32.971Z,2.60
2017-12-19T19:10:01.267Z,2.60
2017-12-19T19:12:29.603Z,2.60
2017-12-19T19:14:57.934Z,2.70
2017-12-19T19:17:26.226Z,2.70
2017-12-19T19:19:54.563Z,2.70
2017-12-19T19:22:23.618Z,2.70
2017-12-19T19:24:51.922Z,2.70
2017-12-19T19:27:20.269Z,2.70
2017-12-19T19:29:48.557Z,2.70
2017-12-19T19:32:16.908Z,2.70
2017-12-19T19:34:45.195Z,2.70
2017-12-19T19:37:15.416Z,2.60
2017-12-19T19:39:43.759Z,2.60
2017-12-19T19:42:12.179Z,2.60
2017-12-19T19:44:42.624Z,2.50
2017-12-19T19:47:11.715Z,2.50
2017-12-19T19:49:40.003Z,2.50
2017-12-19T19:52:08.351Z,2.60
2017-12-19T19:54:36.639Z,2.60
2017-12-19T19:57:05.745Z,2.60
2017-12-19T19:59:35.534Z,2.50
2017-12-19T20:02:03.956Z,2.50
2017-12-19T20:04:32.279Z,2.50
2017-12-19T20:07:00.626Z,2.60
2017-12-19T20:09:28.968Z,2.50
2017-12-19T20:11:57.295Z,2.50
2017-12-19T20:14:25.806Z,2.50
2017-12-19T20:16:54.127Z,2.60
2017-12-19T20:19:22.444Z,2.70
2017-12-19T20:21:50.766Z,2.80
2017-12-19T20:24:19.080Z,2.80
2017-12-19T20:26:47.407Z,2.80
2017-12-19T20:29:15.759Z,2.90
2017-12-19T20:31:44.240Z,2.80
2017-12-19T20:34:12.531Z,2.60
2017-12-19T20:36:40.915Z,2.50
2017-12-19T20:39:09.207Z,2.60
2017-12-19T20:41:39.038Z,2.70
2017-12-19T20:44:07.326Z,2.70
2017-12-19T20:46:35.707Z,2.70
2017-12-19T20:49:05.498Z,2.60
2017-12-19T20:51:33.787Z,2.60
2017-12-19T20:54:02.114Z,2.60
2017-12-19T20:56:30.442Z,2.60
2017-12-19T20:58:58.730Z,2.60
2017-12-19T21:01:27.066Z,2.60
2017-12-19T21:03:55.644Z,2.60
2017-12-19T21:06:23.983Z,2.60
2017-12-19T21:08:52.268Z,2.60
2017-12-19T21:11:21.375Z,2.40
2017-12-19T21:13:49.699Z,2.40
2017-12-19T21:16:18.042Z,2.50
2017-12-19T21:18:46.431Z,2.40
2017-12-19T21:21:14.769Z,2.60
2017-12-19T21:23:43.056Z,2.60
2017-12-19T21:26:11.403Z,2.50
2017-12-19T21:28:39.732Z,2.40
2017-12-19T21:31:08.066Z,2.40
2017-12-19T21:33:36.355Z,2.40
2017-12-19T21:36:04.704Z,2.40
2017-12-19T21:38:33.051Z,2.40
2017-12-19T21:41:01.382Z,2.40
2017-12-19T21:43:29.740Z,2.30
2017-12-19T21:45:58.926Z,2.40
2017-12-19T21:48:27.199Z,2.40
2017-12-19T21:50:55.530Z,2.40
2017-12-19T21:53:23.829Z,2.30
2017-12-19T21:55:53.119Z,2.30
2017-12-19T21:58:21.403Z,2.30
2017-12-19T22:00:49.687Z,2.40
2017-12-19T22:03:18.011Z,2.40
2017-12-19T22:05:46.347Z,2.40
2017-12-19T22:08:14.635Z,2.40
2017-12-19T22:10:42.946Z,2.40
2017-12-19T22:13:11.647Z,2.30
2017-12-19T22:15:39.931Z,2.40
2017-12-19T22:18:08.339Z,2.30
2017-12-19T22:20:36.659Z,2.40
2017-12-19T22:23:05.122Z,2.30
2017-12-19T22:25:35.243Z,2.20
2017-12-19T22:28:03.532Z,2.10
2017-12-19T22:30:31.814Z,2.30
2017-12-19T22:33:00.157Z,2.40
2017-12-19T22:35:28.451Z,2.40
2017-12-19T22:37:56.747Z,2.30
2017-12-19T22:40:25.078Z,2.30
2017-12-19T22:42:53.370Z,2.30
2017-12-19T22:45:21.715Z,2.30
2017-12-19T22:47:50.007Z,2.30
2017-12-19T22:50:18.334Z,2.30
2017-12-19T22:52:46.707Z,2.20
2017-12-19T22:55:14.991Z,2.20
2017-12-19T22:57:43.284Z,2.20
2017-12-19T23:00:11.620Z,2.20
2017-12-19T23:02:40.707Z,2.30
2017-12-19T23:05:10.427Z,2.30
2017-12-19T23:07:38.908Z,2.40
2017-12-19T23:10:07.191Z,2.30
2017-12-19T23:12:35.522Z,2.30
2017-12-19T23:15:04.607Z,2.30
2017-12-19T23:17:32.910Z,2.20
2017-12-19T23:20:02.401Z,2.30
2017-12-19T23:22:30.755Z,2.30
2017-12-19T23:24:59.240Z,2.30
2017-12-19T23:27:27.745Z,2.30
2017-12-19T23:29:56.027Z,2.30
2017-12-19T23:32:24.566Z,2.40
2017-12-19T23:34:52.883Z,2.30
2017-12-19T23:37:21.931Z,2.30
2017-12-19T23:39:50.261Z,2.30
2017-12-19T23:42:18.647Z,2.30
2017-12-19T23:44:46.978Z,2.20
2017-12-19T23:47:15.271Z,2.20
2017-12-19T23:49:43.767Z,2.30
2017-12-19T23:52:12.799Z,2.50
2017-12-19T23:54:41.091Z,2.50
2017-12-19T23:57:09.468Z,2.40
2017-12-19T23:59:37.799Z,2.40
